Home > Products > Valid Products > SSM

000
SMZS01 NSTU 232356
SSMPPG
AAXX 24004
91765 11569 51313 10294 20249 30125 40129 57015 60034 70282 84440
333 20247 5639/ 58005 70028 555 92400=




000
SMZS01 NSTU 231802
SSMPPG
AAXX 23184
91765 11466 81417 10247 20237 30134 40137 51015 60011 78082 8682/
333 56399 70028 555 92318=




000
SMZS01 NSTU 231200
SSMPPG
AAXX 23124
91765 11458 81512 10249 20243 30130 40134 56012 60021 78086 8787/
333 10298 56339 58021 70018 555 92312=




000
SMZS01 NSTU 230628
SSMPPG
AAXX 23064
91765 32466 61711 10265 20245 30127 40130 53017 86200 333 56200
70000 555 92306=




000
SMZS01 NSTU 222354
SSMPPG
AAXX 23004
91765 32569 41809 10292 20251 30120 40124 57017 82140 333 20246
5649/ 58012 555 92300=




000
SMZS01 NSTU 221755
SSMPPG
AAXX 22184
91765 32569 29903 10250 20242 30124 40127 51022 82105 333 569/9 555
92218=




000
SMZS01 NSTU 221202
SSMPPG
AAXX 22124
91765 32469 21205 10267 20241 30110 40113 56012 82100 333 10312
563// 59002 555 92212=




000
SMZS01 NSTU 220616
SSMPPG
AAXX 22064
91765 32569 31005 10276 20238 30108 40112 52014 82101 333 56101
70000 555 92206=




000
SMZS01 NSTU 212356
SSMPPG
AAXX 22004
91765 32569 31006 10304 20248 30108 40112 57019 83100 333 20267
562// 59001 555 92200=




000
SMZS01 NSTU 211757
SSMPPG
AAXX 21184
91765 32469 51108 10268 20240 30117 40120 51019 85400 333 562// 555
92118=




000
SMZS01 NSTU 211155
SSMPPG
AAXX 21124
91765 32566 61111 10271 20246 30112 40115 56008 86400 333 10317
562// 59007 555 92112=




000
SMZS01 NSTU 210556
SSMPPG
AAXX 21064
91765 32566 41110 10276 20245 30108 40112 52012 83101 333 562/9
70003 555 92106=




    US Dept of Commerce
    National Oceanic and Atmospheric Administration
    National Weather Service
    1325 East West Highway
    Silver Spring, MD 20910
    Page Author: NWS Internet Services Team
Disclaimer
Information Quality
Credits
Glossary
Privacy Policy
Freedom of Information Act (FOIA)
About Us
Career Opportunities